Time;durP1;ratioP1;P1;durP2;ratioP2;P2;SDS_P1;SDS_P2;PMS_P1;PMS_P2;Temp;Humidity;BMP_temperature;BMP_pressure;BME280_temperature;BME280_humidity;BME280_pressure;Samples;Min_cycle;Max_cycle;Signal;HPM_P1;HPM_P2
2022/02/21 00:00:09;;;;;;;;;;;22.80;34.70;;;;;;5046852;28;19995;-43
2022/02/21 00:02:42;;;;;;;;;;;22.80;34.60;;;;;;5041511;28;19913;-47
2022/02/21 00:05:08;;;;;;;;;;;22.70;34.50;;;;;;5036047;28;19917;-46
2022/02/21 00:07:33;;;;;;;;;;;22.70;34.50;;;;;;5035962;28;19905;-45
2022/02/21 00:09:59;;;;;;;;;;;22.70;34.40;;;;;;5038445;28;19915;-45
2022/02/21 00:12:25;;;;;;;;;;;22.70;34.40;;;;;;5036851;28;19904;-43
2022/02/21 00:14:50;;;;;;;;;;;22.80;34.50;;;;;;5051607;28;20346;-46
2022/02/21 00:17:16;;;;;;;;;;;22.70;34.30;;;;;;5053504;28;19962;-46
2022/02/21 00:19:42;;;;;;;;;;;22.70;34.30;;;;;;5052277;28;19923;-47
2022/02/21 00:22:08;;;;;;;;;;;22.70;34.30;;;;;;5053149;28;20029;-43
2022/02/21 00:24:34;;;;;;;;;;;22.70;34.20;;;;;;5042085;28;20335;-43
2022/02/21 00:26:59;;;;;;;;;;;22.70;34.20;;;;;;5036550;28;19905;-45
2022/02/21 00:29:25;;;;;;;;;;;22.60;34.20;;;;;;5043908;28;19974;-44
2022/02/21 00:31:51;;;;;;;;;;;22.70;34.30;;;;;;5037100;28;19908;-50
2022/02/21 00:34:16;;;;;;;;;;;22.70;34.20;;;;;;5043836;28;19916;-44
2022/02/21 00:36:42;;;;;;;;;;;22.60;34.10;;;;;;5035395;28;19917;-45
2022/02/21 00:39:09;;;;;;;;;;;22.60;34.10;;;;;;5036965;28;20024;-48
2022/02/21 00:41:35;;;;;;;;;;;22.60;34.10;;;;;;5035389;28;20395;-48
2022/02/21 00:44:01;;;;;;;;;;;22.60;34.10;;;;;;5024530;28;20012;-46
2022/02/21 00:46:26;;;;;;;;;;;22.60;34.10;;;;;;5053291;28;20320;-49
2022/02/21 00:48:52;;;;;;;;;;;22.60;34.10;;;;;;5046630;28;19995;-45
2022/02/21 00:51:18;;;;;;;;;;;22.60;34.10;;;;;;5035522;28;19905;-43
2022/02/21 00:53:43;;;;;;;;;;;22.60;34.10;;;;;;5042212;28;19908;-48
2022/02/21 00:56:10;;;;;;;;;;;22.50;34.60;;;;;;5035717;28;19967;-45
2022/02/21 00:58:36;;;;;;;;;;;22.50;34.00;;;;;;5035110;28;19948;-44
2022/02/21 01:01:02;;;;;;;;;;;22.50;34.00;;;;;;5049235;28;20316;-44
2022/02/21 01:03:27;;;;;;;;;;;22.50;34.00;;;;;;5052936;28;19965;-44
2022/02/21 01:05:53;;;;;;;;;;;22.50;34.00;;;;;;5037402;28;19905;-46
2022/02/21 01:08:19;;;;;;;;;;;22.50;34.00;;;;;;5035678;28;19909;-44
2022/02/21 01:10:44;;;;;;;;;;;22.50;34.00;;;;;;5048410;28;19911;-44
2022/02/21 01:13:10;;;;;;;;;;;22.40;34.00;;;;;;5052520;28;20015;-46
2022/02/21 01:15:36;;;;;;;;;;;22.50;34.00;;;;;;5043398;28;19916;-49
2022/02/21 01:18:01;;;;;;;;;;;22.40;34.00;;;;;;5038846;28;20324;-46
2022/02/21 01:20:27;;;;;;;;;;;22.40;33.90;;;;;;5048017;28;19915;-47
2022/02/21 01:22:53;;;;;;;;;;;22.40;33.90;;;;;;5055455;28;20324;-44
2022/02/21 01:25:19;;;;;;;;;;;22.40;33.90;;;;;;5049456;28;19915;-43
2022/02/21 01:27:44;;;;;;;;;;;22.40;33.80;;;;;;5038873;28;19919;-43
2022/02/21 01:30:11;;;;;;;;;;;22.40;33.80;;;;;;5048442;28;19916;-44
2022/02/21 01:32:36;;;;;;;;;;;22.30;33.70;;;;;;5038560;28;19905;-46
2022/02/21 01:35:03;;;;;;;;;;;22.40;33.70;;;;;;5040802;28;19911;-44
2022/02/21 01:37:29;;;;;;;;;;;22.40;33.70;;;;;;5038655;28;19935;-44
2022/02/21 01:39:54;;;;;;;;;;;22.30;33.60;;;;;;5039673;28;19909;-45
2022/02/21 01:42:20;;;;;;;;;;;22.30;33.60;;;;;;5050525;28;19999;-45
2022/02/21 01:44:46;;;;;;;;;;;22.30;33.60;;;;;;5040163;28;19905;-45
2022/02/21 01:47:13;;;;;;;;;;;22.30;33.60;;;;;;5055394;28;19908;-45
2022/02/21 01:49:39;;;;;;;;;;;22.30;33.60;;;;;;5054832;28;19957;-44
2022/02/21 01:52:05;;;;;;;;;;;22.30;34.20;;;;;;5032851;28;20003;-43
2022/02/21 01:54:31;;;;;;;;;;;22.20;33.50;;;;;;5038704;28;19905;-43
2022/02/21 01:56:58;;;;;;;;;;;22.20;33.50;;;;;;5052810;28;19923;-45
2022/02/21 01:59:26;;;;;;;;;;;22.20;33.50;;;;;;5056362;28;19939;-43
2022/02/21 02:01:52;;;;;;;;;;;22.20;33.50;;;;;;5042864;28;19936;-49
2022/02/21 02:04:19;;;;;;;;;;;22.20;33.50;;;;;;5040387;28;19983;-44
2022/02/21 02:06:46;;;;;;;;;;;22.20;33.40;;;;;;5022442;28;19905;-45
2022/02/21 02:09:11;;;;;;;;;;;22.20;33.40;;;;;;5038227;28;19909;-44
2022/02/21 02:11:37;;;;;;;;;;;22.20;33.40;;;;;;5048558;28;19935;-44
2022/02/21 02:14:04;;;;;;;;;;;22.20;33.40;;;;;;5055693;28;19904;-44
2022/02/21 02:16:29;;;;;;;;;;;22.20;33.40;;;;;;5042500;28;20263;-43
2022/02/21 02:18:55;;;;;;;;;;;22.20;33.30;;;;;;5051814;28;19905;-45
2022/02/21 02:21:28;;;;;;;;;;;22.20;33.40;;;;;;5047267;28;20287;-42
2022/02/21 02:23:54;;;;;;;;;;;22.20;33.30;;;;;;5039330;28;20008;-45
2022/02/21 02:26:21;;;;;;;;;;;22.10;33.20;;;;;;5044218;28;19951;-43
2022/02/21 02:28:49;;;;;;;;;;;22.10;33.20;;;;;;5040038;28;19909;-46
2022/02/21 02:31:15;;;;;;;;;;;22.10;33.10;;;;;;5022962;28;19919;-43
2022/02/21 02:33:41;;;;;;;;;;;22.10;33.10;;;;;;5053194;28;19995;-43
2022/02/21 02:36:08;;;;;;;;;;;22.10;33.10;;;;;;5051399;28;19909;-45
2022/02/21 02:38:40;;;;;;;;;;;22.10;33.10;;;;;;5042075;28;19908;-45
2022/02/21 02:41:06;;;;;;;;;;;22.10;33.10;;;;;;5053024;28;19905;-46
2022/02/21 02:43:32;;;;;;;;;;;22.10;33.10;;;;;;5043873;28;19915;-44
2022/02/21 02:45:57;;;;;;;;;;;22.10;33.70;;;;;;5049599;28;20274;-45
2022/02/21 02:48:23;;;;;;;;;;;22.00;32.90;;;;;;5039849;28;19917;-45
2022/02/21 02:50:49;;;;;;;;;;;22.00;32.90;;;;;;5035424;28;19905;-47
2022/02/21 02:53:15;;;;;;;;;;;22.00;32.90;;;;;;5042424;28;19915;-45
2022/02/21 02:55:41;;;;;;;;;;;22.00;32.90;;;;;;5055319;28;20000;-45
2022/02/21 02:58:06;;;;;;;;;;;22.00;32.90;;;;;;5038442;28;19966;-48
2022/02/21 03:00:32;;;;;;;;;;;22.00;32.80;;;;;;5047068;28;19987;-44
2022/02/21 03:02:57;;;;;;;;;;;22.00;32.90;;;;;;5042089;28;20324;-44
2022/02/21 03:05:23;;;;;;;;;;;22.00;32.80;;;;;;5037126;28;19905;-45
2022/02/21 03:07:49;;;;;;;;;;;22.00;32.80;;;;;;5047203;28;20370;-46
2022/02/21 03:10:14;;;;;;;;;;;21.90;32.70;;;;;;5052000;28;19923;-45
2022/02/21 03:12:40;;;;;;;;;;;21.90;32.60;;;;;;5044957;28;19905;-43
2022/02/21 03:15:06;;;;;;;;;;;21.90;32.60;;;;;;5039054;28;19905;-45
2022/02/21 03:17:32;;;;;;;;;;;21.90;32.60;;;;;;5043785;28;19923;-49
2022/02/21 03:19:57;;;;;;;;;;;21.90;32.70;;;;;;5036357;28;20259;-45
2022/02/21 03:22:23;;;;;;;;;;;21.90;32.70;;;;;;5048689;28;20332;-43
2022/02/21 03:24:48;;;;;;;;;;;21.90;32.60;;;;;;5053920;28;19905;-48
2022/02/21 03:27:14;;;;;;;;;;;21.90;32.60;;;;;;5051368;28;19919;-44
2022/02/21 03:29:42;;;;;;;;;;;21.90;32.60;;;;;;5023131;28;20327;-47
2022/02/21 03:32:07;;;;;;;;;;;21.90;32.50;;;;;;5036591;28;19998;-43
2022/02/21 03:34:33;;;;;;;;;;;21.80;32.50;;;;;;5038424;28;19948;-44
2022/02/21 03:36:59;;;;;;;;;;;21.90;32.50;;;;;;5047287;28;20430;-46
2022/02/21 03:39:25;;;;;;;;;;;21.80;32.40;;;;;;5045213;28;19923;-43
2022/02/21 03:41:50;;;;;;;;;;;21.80;32.40;;;;;;5038519;28;19908;-42
2022/02/21 03:44:16;;;;;;;;;;;21.80;32.40;;;;;;5039119;28;20270;-45
2022/02/21 03:46:43;;;;;;;;;;;21.80;32.40;;;;;;5038250;28;19905;-52
2022/02/21 03:49:09;;;;;;;;;;;21.80;32.30;;;;;;5019941;28;19915;-45
2022/02/21 03:51:34;;;;;;;;;;;21.80;32.30;;;;;;5037606;28;20342;-45
2022/02/21 03:54:00;;;;;;;;;;;21.80;32.20;;;;;;5035910;28;19905;-44
2022/02/21 03:56:26;;;;;;;;;;;21.80;32.20;;;;;;5037408;28;19952;-51
2022/02/21 03:58:51;;;;;;;;;;;21.80;32.30;;;;;;5052205;28;19905;-45
2022/02/21 04:01:17;;;;;;;;;;;21.80;32.30;;;;;;5051621;28;19905;-45
2022/02/21 04:03:43;;;;;;;;;;;21.80;32.20;;;;;;5040346;28;20306;-47
2022/02/21 04:06:09;;;;;;;;;;;21.80;32.20;;;;;;5037712;28;19933;-45
2022/02/21 04:08:35;;;;;;;;;;;21.80;32.90;;;;;;5036895;28;19948;-46
2022/02/21 04:11:00;;;;;;;;;;;21.70;32.20;;;;;;5026953;28;20227;-43
2022/02/21 04:13:26;;;;;;;;;;;21.70;32.10;;;;;;5050215;28;19912;-45
2022/02/21 04:15:51;;;;;;;;;;;21.70;32.10;;;;;;5049411;28;19905;-46
2022/02/21 04:18:17;;;;;;;;;;;21.70;32.10;;;;;;5036789;28;20015;-43
2022/02/21 04:20:43;;;;;;;;;;;21.70;32.10;;;;;;5038277;28;19970;-48
2022/02/21 04:23:08;;;;;;;;;;;21.70;32.10;;;;;;5035188;28;20267;-45
2022/02/21 04:25:34;;;;;;;;;;;21.70;32.10;;;;;;5036731;28;20327;-46
2022/02/21 04:27:59;;;;;;;;;;;21.70;32.00;;;;;;5039487;28;20351;-45
2022/02/21 04:30:26;;;;;;;;;;;21.70;32.00;;;;;;5035235;28;19912;-44
2022/02/21 04:32:52;;;;;;;;;;;21.70;32.00;;;;;;5051005;28;20021;-42
2022/02/21 04:35:19;;;;;;;;;;;21.60;31.90;;;;;;5053212;28;19999;-45
2022/02/21 04:37:45;;;;;;;;;;;21.70;32.00;;;;;;5037483;28;19917;-44
2022/02/21 04:40:12;;;;;;;;;;;21.60;31.90;;;;;;5035346;28;19967;-44
2022/02/21 04:42:38;;;;;;;;;;;21.60;31.90;;;;;;5036532;28;19905;-47
2022/02/21 04:45:05;;;;;;;;;;;21.60;31.80;;;;;;5035069;28;19975;-46
2022/02/21 04:47:30;;;;;;;;;;;21.60;31.80;;;;;;5042705;28;19923;-44
2022/02/21 04:49:56;;;;;;;;;;;21.60;31.80;;;;;;5044535;28;19908;-45
2022/02/21 04:52:22;;;;;;;;;;;21.60;31.80;;;;;;5043235;28;19916;-46
2022/02/21 04:54:48;;;;;;;;;;;21.60;31.70;;;;;;5053021;28;19948;-45
2022/02/21 04:57:13;;;;;;;;;;;21.50;31.70;;;;;;5041244;28;19912;-47
2022/02/21 04:59:39;;;;;;;;;;;21.50;31.60;;;;;;5052803;28;19981;-48
2022/02/21 05:02:05;;;;;;;;;;;21.60;31.70;;;;;;5049720;28;19953;-43
2022/02/21 05:04:31;;;;;;;;;;;21.60;31.70;;;;;;5052678;28;19962;-48
2022/02/21 05:06:56;;;;;;;;;;;21.50;31.50;;;;;;5047671;28;19978;-47
2022/02/21 05:09:22;;;;;;;;;;;21.50;31.50;;;;;;5035941;28;19913;-45
2022/02/21 05:11:48;;;;;;;;;;;21.50;31.50;;;;;;5038794;28;19958;-44
2022/02/21 05:14:13;;;;;;;;;;;21.50;31.50;;;;;;5052526;28;19923;-43
2022/02/21 05:16:39;;;;;;;;;;;21.50;31.40;;;;;;5049216;28;20011;-44
2022/02/21 05:19:05;;;;;;;;;;;21.50;31.40;;;;;;5045866;28;19974;-48
2022/02/21 05:21:31;;;;;;;;;;;21.40;31.30;;;;;;5050367;28;19908;-47
2022/02/21 05:23:57;;;;;;;;;;;21.50;32.00;;;;;;5035819;28;19955;-47
2022/02/21 05:26:23;;;;;;;;;;;21.50;31.30;;;;;;5037335;28;19912;-48
2022/02/21 05:28:49;;;;;;;;;;;21.40;31.30;;;;;;5042574;28;19954;-45
2022/02/21 05:31:15;;;;;;;;;;;21.40;31.20;;;;;;5050953;28;19905;-44
2022/02/21 05:33:41;;;;;;;;;;;21.40;31.20;;;;;;5045415;28;19908;-45
2022/02/21 05:36:06;;;;;;;;;;;21.40;31.20;;;;;;5050552;28;19904;-47
2022/02/21 05:38:32;;;;;;;;;;;21.40;31.20;;;;;;5033308;28;20014;-46
2022/02/21 05:40:58;;;;;;;;;;;21.40;31.10;;;;;;5050222;28;19955;-43
2022/02/21 05:43:23;;;;;;;;;;;21.40;31.10;;;;;;5040967;28;19905;-48
2022/02/21 05:45:49;;;;;;;;;;;21.40;31.10;;;;;;5036715;28;19909;-44
2022/02/21 05:48:14;;;;;;;;;;;21.40;31.10;;;;;;5044296;28;19909;-45
2022/02/21 05:50:40;;;;;;;;;;;21.40;31.10;;;;;;5029024;28;19916;-46
2022/02/21 05:53:06;;;;;;;;;;;21.40;31.10;;;;;;5043208;28;19905;-44
2022/02/21 05:55:31;;;;;;;;;;;21.40;31.00;;;;;;5046992;28;19909;-45
2022/02/21 05:57:58;;;;;;;;;;;21.40;31.00;;;;;;5040466;28;19913;-47
2022/02/21 06:00:24;;;;;;;;;;;21.30;31.00;;;;;;5040590;28;20659;-46
2022/02/21 06:02:49;;;;;;;;;;;21.30;31.00;;;;;;5052623;28;19924;-47
2022/02/21 06:05:15;;;;;;;;;;;21.30;31.00;;;;;;5044397;28;20340;-45
2022/02/21 06:07:41;;;;;;;;;;;21.30;30.90;;;;;;5041572;28;19999;-44
2022/02/21 06:10:07;;;;;;;;;;;21.30;30.90;;;;;;5052110;28;19904;-47
2022/02/21 06:12:32;;;;;;;;;;;21.30;30.90;;;;;;5046687;28;20002;-44
2022/02/21 06:14:58;;;;;;;;;;;21.30;30.90;;;;;;5039499;28;20371;-45
2022/02/21 06:17:24;;;;;;;;;;;21.30;30.90;;;;;;5050209;28;19925;-48
2022/02/21 06:19:50;;;;;;;;;;;21.30;30.90;;;;;;5055635;28;20012;-47
2022/02/21 06:22:17;;;;;;;;;;;21.30;30.90;;;;;;5055083;28;20347;-46
2022/02/21 06:24:43;;;;;;;;;;;21.30;30.90;;;;;;5040019;28;20045;-46
2022/02/21 06:27:09;;;;;;;;;;;21.30;30.90;;;;;;5038417;28;20327;-44
2022/02/21 06:29:35;;;;;;;;;;;21.30;30.90;;;;;;5051184;28;20015;-45
2022/02/21 06:32:00;;;;;;;;;;;21.30;30.90;;;;;;5046478;28;19978;-45
2022/02/21 06:34:26;;;;;;;;;;;21.30;30.90;;;;;;5047111;28;19916;-46
2022/02/21 06:36:52;;;;;;;;;;;21.30;30.90;;;;;;5052970;28;19913;-45
2022/02/21 06:39:19;;;;;;;;;;;21.20;30.80;;;;;;5047263;28;19904;-47
2022/02/21 06:41:46;;;;;;;;;;;21.20;30.80;;;;;;5055415;28;19966;-44
2022/02/21 06:44:13;;;;;;;;;;;21.20;30.80;;;;;;5045368;28;19927;-44
2022/02/21 06:46:42;;;;;;;;;;;21.20;30.70;;;;;;5037543;28;19966;-44
2022/02/21 06:49:08;;;;;;;;;;;21.20;30.80;;;;;;5043470;28;19966;-45
2022/02/21 06:51:36;;;;;;;;;;;21.20;30.70;;;;;;5051145;28;19905;-43
2022/02/21 06:54:06;;;;;;;;;;;21.20;30.70;;;;;;5043316;28;19905;-46
2022/02/21 06:56:32;;;;;;;;;;;21.20;30.70;;;;;;5024612;28;19978;-46
2022/02/21 06:58:58;;;;;;;;;;;21.20;30.70;;;;;;5043443;28;19940;-46
2022/02/21 07:01:24;;;;;;;;;;;21.20;30.70;;;;;;5019095;28;19931;-48
2022/02/21 07:03:50;;;;;;;;;;;21.20;30.70;;;;;;5044722;28;20265;-50
2022/02/21 07:06:15;;;;;;;;;;;21.20;30.70;;;;;;5037694;28;20344;-50
2022/02/21 07:08:41;;;;;;;;;;;21.20;30.70;;;;;;5044453;28;20328;-47
2022/02/21 07:11:08;;;;;;;;;;;21.20;30.70;;;;;;5040252;28;20300;-45
2022/02/21 07:13:34;;;;;;;;;;;21.20;30.70;;;;;;5036424;28;20623;-46
2022/02/21 07:16:00;;;;;;;;;;;21.20;30.70;;;;;;5046483;28;20348;-48
2022/02/21 07:18:26;;;;;;;;;;;21.10;30.60;;;;;;5043217;28;19913;-44
2022/02/21 07:20:52;;;;;;;;;;;21.10;30.60;;;;;;5045894;28;20323;-48
2022/02/21 07:23:17;;;;;;;;;;;21.20;30.70;;;;;;5054020;28;19962;-44
2022/02/21 07:25:43;;;;;;;;;;;21.10;30.60;;;;;;5048959;28;19905;-45
2022/02/21 07:28:09;;;;;;;;;;;21.10;30.60;;;;;;5033745;28;19905;-47
2022/02/21 07:30:35;;;;;;;;;;;21.10;30.60;;;;;;5044581;28;20327;-45
2022/02/21 07:33:01;;;;;;;;;;;21.10;30.50;;;;;;5047656;28;19917;-44
2022/02/21 07:35:26;;;;;;;;;;;21.10;30.50;;;;;;5051543;28;19904;-46
2022/02/21 07:37:52;;;;;;;;;;;21.10;30.50;;;;;;5047215;28;19948;-45
2022/02/21 07:40:18;;;;;;;;;;;21.10;30.50;;;;;;5040294;28;19991;-44
2022/02/21 07:42:52;;;;;;;;;;;21.20;30.60;;;;;;5042580;28;19970;-46
2022/02/21 07:45:19;;;;;;;;;;;21.20;30.60;;;;;;5041882;28;20066;-45
2022/02/21 07:47:45;;;;;;;;;;;21.30;30.60;;;;;;5048652;28;19991;-44
2022/02/21 07:50:12;;;;;;;;;;;21.30;30.50;;;;;;5042319;28;19917;-46
2022/02/21 07:52:37;;;;;;;;;;;21.40;30.40;;;;;;5051662;28;20323;-44
2022/02/21 07:55:03;;;;;;;;;;;21.60;30.40;;;;;;5052521;28;19916;-44
2022/02/21 07:57:29;;;;;;;;;;;21.60;30.40;;;;;;5049800;28;19924;-47
2022/02/21 07:59:54;;;;;;;;;;;21.70;30.30;;;;;;5042194;28;19909;-42
2022/02/21 08:02:20;;;;;;;;;;;21.80;31.00;;;;;;5049280;28;19912;-45
2022/02/21 08:04:46;;;;;;;;;;;21.90;30.30;;;;;;5053084;28;20009;-47
2022/02/21 08:07:11;;;;;;;;;;;22.00;30.30;;;;;;5038183;28;19924;-49
2022/02/21 08:09:37;;;;;;;;;;;22.20;30.30;;;;;;5045697;28;19916;-48
2022/02/21 08:12:06;;;;;;;;;;;22.20;30.20;;;;;;5050639;28;19905;-47
2022/02/21 08:14:33;;;;;;;;;;;22.30;30.20;;;;;;5049078;28;19912;-53
2022/02/21 08:16:59;;;;;;;;;;;22.40;30.20;;;;;;5040087;28;19923;-47
2022/02/21 08:19:25;;;;;;;;;;;22.40;30.10;;;;;;5049002;28;20270;-49
2022/02/21 08:21:52;;;;;;;;;;;22.50;30.10;;;;;;5048731;28;19917;-46
2022/02/21 08:24:18;;;;;;;;;;;22.60;30.10;;;;;;5051939;28;19905;-49
2022/02/21 08:26:43;;;;;;;;;;;22.70;30.00;;;;;;5041445;28;19920;-44
2022/02/21 08:29:12;;;;;;;;;;;22.80;30.00;;;;;;5035138;28;19905;-48
2022/02/21 08:31:38;;;;;;;;;;;22.80;30.00;;;;;;5042536;28;19911;-47
2022/02/21 08:34:04;;;;;;;;;;;22.90;29.90;;;;;;5052041;28;20003;-49
2022/02/21 08:36:32;;;;;;;;;;;22.90;29.90;;;;;;5025423;28;19916;-51
2022/02/21 08:38:58;;;;;;;;;;;23.00;29.90;;;;;;5046313;28;19905;-45
2022/02/21 08:41:24;;;;;;;;;;;23.10;29.80;;;;;;5044362;28;19908;-52
2022/02/21 08:43:49;;;;;;;;;;;23.10;29.80;;;;;;5041327;28;19905;-46
2022/02/21 08:46:15;;;;;;;;;;;23.20;29.80;;;;;;5048907;28;20236;-50
2022/02/21 08:48:41;;;;;;;;;;;23.30;29.80;;;;;;5049844;28;19905;-49
2022/02/21 08:51:07;;;;;;;;;;;23.30;29.70;;;;;;5037652;28;19935;-49
2022/02/21 08:53:33;;;;;;;;;;;23.40;29.70;;;;;;5022062;28;19905;-49
2022/02/21 08:55:59;;;;;;;;;;;23.40;29.60;;;;;;5036893;28;19905;-49
2022/02/21 08:58:25;;;;;;;;;;;23.50;29.60;;;;;;5041277;28;19935;-50
2022/02/21 09:00:50;;;;;;;;;;;23.60;29.60;;;;;;5041243;28;19931;-48
2022/02/21 09:03:16;;;;;;;;;;;23.60;29.50;;;;;;5040123;28;20007;-47
2022/02/21 09:05:41;;;;;;;;;;;23.70;29.50;;;;;;5050155;28;19992;-49
2022/02/21 09:08:07;;;;;;;;;;;23.70;29.50;;;;;;5045183;28;20223;-48
2022/02/21 09:10:33;;;;;;;;;;;23.80;29.50;;;;;;5050549;28;19923;-45
2022/02/21 09:12:59;;;;;;;;;;;23.80;29.50;;;;;;5048868;28;19917;-47
2022/02/21 09:15:25;;;;;;;;;;;23.90;30.00;;;;;;5046116;28;19948;-46
2022/02/21 09:17:51;;;;;;;;;;;24.00;29.40;;;;;;5045431;28;19953;-48
2022/02/21 09:20:17;;;;;;;;;;;24.00;29.40;;;;;;5045062;28;20327;-51
2022/02/21 09:22:43;;;;;;;;;;;24.10;29.40;;;;;;5043145;28;19995;-45
2022/02/21 09:25:09;;;;;;;;;;;24.10;29.40;;;;;;5041406;28;19904;-52
2022/02/21 09:27:35;;;;;;;;;;;24.20;29.40;;;;;;5050072;28;19920;-56
2022/02/21 09:30:10;;;;;;;;;;;24.20;29.80;;;;;;5050852;28;20337;-49
2022/02/21 09:32:36;;;;;;;;;;;24.30;29.30;;;;;;5053833;28;19905;-49
2022/02/21 09:35:02;;;;;;;;;;;24.30;29.30;;;;;;5045529;28;20201;-48
2022/02/21 09:37:27;;;;;;;;;;;24.30;29.30;;;;;;5035761;28;20236;-50
2022/02/21 09:39:53;;;;;;;;;;;24.40;29.40;;;;;;5057325;28;20235;-49
2022/02/21 09:42:20;;;;;;;;;;;24.40;29.40;;;;;;5054490;28;19952;-47
2022/02/21 09:44:47;;;;;;;;;;;24.40;29.30;;;;;;5053980;28;19905;-54
2022/02/21 09:47:17;;;;;;;;;;;24.40;29.30;;;;;;5047078;28;19913;-47
2022/02/21 09:49:42;;;;;;;;;;;24.40;29.20;;;;;;5051533;28;19909;-52
2022/02/21 09:52:08;;;;;;;;;;;24.40;29.20;;;;;;5057104;28;19962;-47
2022/02/21 09:54:33;;;;;;;;;;;24.40;29.20;;;;;;5058625;28;19992;-47
2022/02/21 09:56:59;;;;;;;;;;;24.40;29.20;;;;;;5037759;28;20007;-48
2022/02/21 09:59:25;;;;;;;;;;;24.40;29.20;;;;;;5039126;28;19940;-46
2022/02/21 10:01:51;;;;;;;;;;;24.40;29.20;;;;;;5039282;28;19916;-47
2022/02/21 10:04:23;;;;;;;;;;;24.40;29.20;;;;;;5038449;28;19919;-47
2022/02/21 10:06:50;;;;;;;;;;;24.40;29.20;;;;;;5039670;28;19959;-45
2022/02/21 10:09:16;;;;;;;;;;;24.40;29.20;;;;;;5038659;28;19909;-49
2022/02/21 10:11:43;;;;;;;;;;;24.30;29.10;;;;;;5051839;28;19905;-49
2022/02/21 10:14:13;;;;;;;;;;;24.30;29.20;;;;;;5057796;28;19904;-52
2022/02/21 10:16:39;;;;;;;;;;;24.30;29.20;;;;;;5021305;28;19932;-50
2022/02/21 10:19:09;;;;;;;;;;;24.30;29.20;;;;;;5038809;28;19904;-46
2022/02/21 10:21:47;;;;;;;;;;;24.20;29.20;;;;;;5058064;28;19938;-45
2022/02/21 10:24:12;;;;;;;;;;;24.20;29.20;;;;;;5055888;28;20158;-51
2022/02/21 10:26:38;;;;;;;;;;;24.20;29.20;;;;;;5038462;28;19924;-50
2022/02/21 10:29:07;;;;;;;;;;;24.20;29.20;;;;;;5039471;28;19911;-47
2022/02/21 10:31:33;;;;;;;;;;;24.20;29.20;;;;;;5057846;28;19911;-49
2022/02/21 10:34:00;;;;;;;;;;;24.20;29.20;;;;;;5057554;28;20003;-48
2022/02/21 10:36:35;;;;;;;;;;;24.20;29.10;;;;;;5038340;28;19982;-49
2022/02/21 10:39:03;;;;;;;;;;;24.20;29.10;;;;;;5038086;28;20240;-48
2022/02/21 10:41:41;;;;;;;;;;;24.20;29.00;;;;;;5038248;28;19916;-46
2022/02/21 10:44:14;;;;;;;;;;;24.20;29.00;;;;;;5038082;28;19912;-49
2022/02/21 10:46:40;;;;;;;;;;;24.20;29.00;;;;;;5036722;28;19932;-50
2022/02/21 10:49:10;;;;;;;;;;;24.30;29.00;;;;;;5057625;28;20323;-48
2022/02/21 10:51:35;;;;;;;;;;;24.30;29.00;;;;;;5055706;28;19999;-46
2022/02/21 10:54:07;;;;;;;;;;;24.30;29.00;;;;;;5037823;28;19940;-48
2022/02/21 10:56:42;;;;;;;;;;;24.30;29.00;;;;;;5043334;28;19915;-51
2022/02/21 10:59:17;;;;;;;;;;;24.30;29.00;;;;;;5052711;28;19940;-50
2022/02/21 11:01:43;;;;;;;;;;;24.30;28.90;;;;;;5056929;28;20247;-44
2022/02/21 11:04:09;;;;;;;;;;;24.30;28.90;;;;;;5055742;28;19913;-52
2022/02/21 11:06:35;;;;;;;;;;;24.30;28.90;;;;;;5058187;28;19970;-44
2022/02/21 11:09:01;;;;;;;;;;;24.30;28.90;;;;;;5034433;28;19951;-48
2022/02/21 11:11:27;;;;;;;;;;;24.30;28.90;;;;;;5037351;28;20000;-51
2022/02/21 11:13:54;;;;;;;;;;;24.30;28.90;;;;;;5047519;28;19905;-48
2022/02/21 11:16:20;;;;;;;;;;;24.40;28.90;;;;;;5037446;28;19905;-45
2022/02/21 11:18:47;;;;;;;;;;;24.40;28.90;;;;;;5038163;28;19974;-49
2022/02/21 11:21:14;;;;;;;;;;;24.40;28.90;;;;;;5057390;28;19991;-47
2022/02/21 11:23:39;;;;;;;;;;;24.40;28.90;;;;;;5037325;28;20228;-47
2022/02/21 11:26:13;;;;;;;;;;;24.40;28.90;;;;;;5051386;28;19905;-46
2022/02/21 11:28:42;;;;;;;;;;;24.40;28.90;;;;;;5046625;28;19905;-44
2022/02/21 11:31:10;;;;;;;;;;;24.40;28.90;;;;;;5050722;28;19916;-54
2022/02/21 11:33:55;;;;;;;;;;;24.40;28.90;;;;;;5045556;28;19963;-54
2022/02/21 11:36:21;;;;;;;;;;;24.40;29.00;;;;;;5051774;28;20259;-49
2022/02/21 11:38:47;;;;;;;;;;;24.40;29.00;;;;;;5050942;28;19912;-47
2022/02/21 11:41:14;;;;;;;;;;;24.40;29.10;;;;;;5040605;28;19927;-45
2022/02/21 11:43:39;;;;;;;;;;;24.40;29.10;;;;;;5027986;28;20001;-48
2022/02/21 11:46:07;;;;;;;;;;;24.40;29.10;;;;;;5044882;28;19966;-47
2022/02/21 11:48:49;;;;;;;;;;;24.50;29.20;;;;;;5045646;28;20304;-48
2022/02/21 11:51:30;;;;;;;;;;;24.50;29.20;;;;;;5046557;28;20323;-51
2022/02/21 11:54:16;;;;;;;;;;;24.50;29.20;;;;;;5036034;28;20394;-54
2022/02/21 11:56:47;;;;;;;;;;;24.50;29.20;;;;;;5037165;28;19916;-49
2022/02/21 11:59:22;;;;;;;;;;;24.50;29.20;;;;;;5039640;28;19905;-47
2022/02/21 12:01:48;;;;;;;;;;;24.50;29.20;;;;;;5042705;28;20363;-45
2022/02/21 12:04:17;;;;;;;;;;;24.50;29.20;;;;;;5053407;28;19905;-45
2022/02/21 12:06:49;;;;;;;;;;;24.50;29.20;;;;;;5045172;28;19905;-44
2022/02/21 12:09:15;;;;;;;;;;;24.50;29.20;;;;;;5053463;28;19916;-47
2022/02/21 12:11:42;;;;;;;;;;;24.50;29.30;;;;;;5053767;28;19905;-44
2022/02/21 12:14:08;;;;;;;;;;;24.50;29.30;;;;;;5041464;28;19916;-46
2022/02/21 12:16:53;;;;;;;;;;;24.50;29.30;;;;;;5035450;28;19905;-48
2022/02/21 12:19:45;;;;;;;;;;;24.50;29.30;;;;;;5048196;28;19928;-46
2022/02/21 12:22:11;;;;;;;;;;;24.50;29.30;;;;;;5048622;28;20205;-43
2022/02/21 12:24:55;;;;;;;;;;;24.60;29.40;;;;;;5037226;28;21558;-46
2022/02/21 12:27:21;;;;;;;;;;;24.60;29.40;;;;;;5048446;28;19905;-44
2022/02/21 12:29:46;;;;;;;;;;;24.50;29.30;;;;;;5035427;28;19927;-46
2022/02/21 12:32:16;;;;;;;;;;;24.50;29.30;;;;;;5037421;28;19905;-48
2022/02/21 12:34:43;;;;;;;;;;;24.60;29.40;;;;;;5035540;28;19905;-45
2022/02/21 12:37:10;;;;;;;;;;;24.50;29.40;;;;;;5040058;28;19913;-56
2022/02/21 12:39:36;;;;;;;;;;;24.50;29.40;;;;;;5035315;28;19991;-43
2022/02/21 12:42:02;;;;;;;;;;;24.50;29.40;;;;;;5047518;28;19936;-48
2022/02/21 12:44:28;;;;;;;;;;;24.50;29.40;;;;;;5049560;28;20009;-45
2022/02/21 12:46:56;;;;;;;;;;;24.50;29.50;;;;;;5047401;28;20211;-43
2022/02/21 12:49:25;;;;;;;;;;;24.50;29.60;;;;;;5046952;28;19954;-44
2022/02/21 12:51:53;;;;;;;;;;;24.50;29.70;;;;;;5047606;28;19908;-53
2022/02/21 12:54:20;;;;;;;;;;;24.50;29.80;;;;;;5040366;28;19916;-52
2022/02/21 12:56:53;;;;;;;;;;;24.50;29.90;;;;;;5036138;28;20189;-51
2022/02/21 12:59:23;;;;;;;;;;;24.50;30.00;;;;;;5044253;28;20237;-49
2022/02/21 13:01:50;;;;;;;;;;;24.50;30.00;;;;;;5036680;28;19923;-47
2022/02/21 13:04:16;;;;;;;;;;;24.50;30.10;;;;;;5042307;28;20316;-51
2022/02/21 13:06:42;;;;;;;;;;;24.50;30.10;;;;;;5046998;28;19963;-46
2022/02/21 13:09:08;;;;;;;;;;;24.60;30.20;;;;;;5044078;28;20303;-48
2022/02/21 13:11:35;;;;;;;;;;;24.60;30.20;;;;;;5036112;28;19905;-50
2022/02/21 13:14:02;;;;;;;;;;;24.60;30.20;;;;;;5041722;28;19916;-44
2022/02/21 13:16:29;;;;;;;;;;;24.60;30.20;;;;;;5040680;28;19940;-46
2022/02/21 13:18:57;;;;;;;;;;;24.60;30.20;;;;;;5040181;28;19928;-47
2022/02/21 13:21:26;;;;;;;;;;;24.60;30.20;;;;;;5033936;28;20231;-47
2022/02/21 13:23:51;;;;;;;;;;;24.60;30.30;;;;;;5041889;28;19922;-49
2022/02/21 13:26:17;;;;;;;;;;;24.60;30.20;;;;;;5039536;28;19999;-46
2022/02/21 13:28:43;;;;;;;;;;;24.50;30.10;;;;;;5050529;28;19904;-47
2022/02/21 13:31:09;;;;;;;;;;;24.40;30.00;;;;;;5052673;28;19966;-49
2022/02/21 13:33:38;;;;;;;;;;;24.40;30.00;;;;;;5048573;28;19909;-53
2022/02/21 13:36:04;;;;;;;;;;;24.40;30.00;;;;;;5051254;28;19916;-48
2022/02/21 13:38:30;;;;;;;;;;;24.40;30.10;;;;;;5046336;28;19913;-52
2022/02/21 13:40:59;;;;;;;;;;;24.40;30.10;;;;;;5043797;28;19904;-49
2022/02/21 13:43:25;;;;;;;;;;;24.40;30.10;;;;;;5046232;28;20263;-50
2022/02/21 13:45:52;;;;;;;;;;;24.40;30.20;;;;;;5043391;28;19916;-48
2022/02/21 13:48:23;;;;;;;;;;;24.40;30.20;;;;;;5038822;28;19917;-48
2022/02/21 13:50:52;;;;;;;;;;;24.40;30.20;;;;;;5050761;28;20434;-47
2022/02/21 13:53:26;;;;;;;;;;;24.40;30.20;;;;;;5048052;28;20369;-48
2022/02/21 13:55:57;;;;;;;;;;;24.40;30.30;;;;;;5048994;28;20050;-53
2022/02/21 13:58:55;;;;;;;;;;;24.40;30.30;;;;;;5033539;28;19966;-47
2022/02/21 14:01:23;;;;;;;;;;;24.40;30.30;;;;;;4993472;28;19905;-48
2022/02/21 14:03:49;;;;;;;;;;;24.40;30.30;;;;;;5009308;28;19914;-47
2022/02/21 14:06:16;;;;;;;;;;;24.40;30.30;;;;;;5011734;28;19905;-46
2022/02/21 14:08:48;;;;;;;;;;;24.40;30.40;;;;;;5009725;28;19917;-55
2022/02/21 14:11:16;;;;;;;;;;;24.40;30.40;;;;;;5009630;28;20224;-51
2022/02/21 14:13:43;;;;;;;;;;;24.40;30.30;;;;;;5002564;28;19905;-56